createdAt,value
2023-05-12T00:01:54.025Z,43.25
2023-05-12T00:05:04.442Z,42.90
2023-05-12T00:08:10.012Z,44.10
2023-05-12T00:11:16.777Z,43.09
2023-05-12T00:14:23.979Z,43.99
2023-05-12T00:17:30.457Z,44.45
2023-05-12T00:20:39.173Z,44.21
2023-05-12T00:23:46.334Z,44.80
2023-05-12T00:26:51.961Z,44.15
2023-05-12T00:29:58.647Z,44.23
2023-05-12T00:33:04.268Z,44.74
2023-05-12T00:36:13.939Z,43.99
2023-05-12T00:39:19.675Z,44.90
2023-05-12T00:42:26.038Z,44.38
2023-05-12T00:45:32.637Z,44.88
2023-05-12T00:48:39.687Z,45.39
2023-05-12T00:51:49.310Z,44.86
2023-05-12T00:54:56.078Z,45.58
2023-05-12T00:58:02.876Z,45.91
2023-05-12T01:01:10.466Z,46.02
2023-05-12T01:04:17.482Z,45.29
2023-05-12T01:07:30.854Z,46.16
2023-05-12T01:10:37.252Z,45.24
2023-05-12T01:13:44.350Z,46.12
2023-05-12T01:16:56.381Z,45.03
2023-05-12T01:20:09.062Z,45.18
2023-05-12T01:23:23.263Z,46.21
2023-05-12T01:26:33.690Z,45.50
2023-05-12T01:29:42.096Z,46.21
2023-05-12T01:32:49.220Z,45.74
2023-05-12T01:35:55.735Z,46.24
2023-05-12T01:39:02.200Z,46.52
2023-05-12T01:42:11.647Z,46.27
2023-05-12T01:45:18.034Z,46.83
2023-05-12T01:48:24.411Z,47.01
2023-05-12T01:51:31.139Z,46.00
2023-05-12T01:54:37.802Z,46.58
2023-05-12T01:57:47.147Z,46.41
2023-05-12T02:00:53.627Z,46.92
2023-05-12T02:04:01.460Z,46.94
2023-05-12T02:07:07.903Z,46.68
2023-05-12T02:10:14.557Z,47.06
2023-05-12T02:13:23.637Z,47.36
2023-05-12T02:16:30.224Z,47.65
2023-05-12T02:19:35.768Z,47.29
2023-05-12T02:22:42.221Z,47.29
2023-05-12T02:25:47.797Z,47.34
2023-05-12T02:28:56.880Z,47.13
2023-05-12T02:32:02.915Z,47.04
2023-05-12T02:35:11.375Z,47.68
2023-05-12T02:38:17.965Z,48.17
2023-05-12T02:41:24.429Z,48.10
2023-05-12T02:44:32.890Z,48.17
2023-05-12T02:47:39.348Z,48.22
2023-05-12T02:50:45.291Z,48.47
2023-05-12T02:53:51.944Z,48.01
2023-05-12T02:56:58.543Z,48.46
2023-05-12T03:00:09.644Z,48.38
2023-05-12T03:03:19.121Z,48.09
2023-05-12T03:06:25.858Z,48.22
2023-05-12T03:09:32.073Z,48.40
2023-05-12T03:12:38.551Z,48.48
2023-05-12T03:15:46.838Z,48.73
2023-05-12T03:18:53.282Z,48.96
2023-05-12T03:21:59.219Z,49.55
2023-05-12T03:25:06.900Z,49.43
2023-05-12T03:28:13.194Z,48.81
2023-05-12T03:31:23.007Z,49.28
2023-05-12T03:34:29.027Z,49.55
2023-05-12T03:37:37.973Z,49.21
2023-05-12T03:40:45.123Z,48.35
2023-05-12T03:43:52.070Z,48.40
2023-05-12T03:47:00.477Z,49.08
2023-05-12T03:50:07.773Z,48.50
2023-05-12T03:53:13.442Z,48.32
2023-05-12T03:56:20.211Z,49.31
2023-05-12T03:59:26.736Z,48.50
2023-05-12T04:02:36.224Z,48.51
2023-05-12T04:05:43.085Z,48.61
2023-05-12T04:08:49.457Z,48.77
2023-05-12T04:11:55.691Z,48.31
2023-05-12T04:15:02.826Z,49.28
2023-05-12T04:18:11.096Z,49.33
2023-05-12T04:21:18.908Z,48.60
2023-05-12T04:24:25.728Z,48.72
2023-05-12T04:27:32.082Z,47.95
2023-05-12T04:30:37.939Z,48.26
2023-05-12T04:33:48.329Z,48.91
2023-05-12T04:36:54.132Z,48.40
2023-05-12T04:40:00.778Z,47.39
2023-05-12T04:43:06.376Z,48.41
2023-05-12T04:46:13.040Z,48.47
2023-05-12T04:49:21.597Z,48.45
2023-05-12T04:52:28.177Z,47.29
2023-05-12T04:55:33.783Z,47.80
2023-05-12T04:58:40.416Z,47.00
2023-05-12T05:01:48.433Z,47.07
2023-05-12T05:04:57.746Z,46.92
2023-05-12T05:08:04.325Z,46.93
2023-05-12T05:11:11.861Z,46.90
2023-05-12T05:14:17.499Z,46.05
2023-05-12T05:17:24.071Z,45.58
2023-05-12T05:20:33.066Z,46.10
2023-05-12T05:23:39.799Z,45.90
2023-05-12T05:26:46.064Z,45.23
2023-05-12T05:29:52.657Z,45.07
2023-05-12T05:32:58.284Z,45.35
2023-05-12T05:36:08.220Z,46.00
2023-05-12T05:39:14.135Z,44.82
2023-05-12T05:42:20.553Z,45.57
2023-05-12T05:45:28.048Z,45.33
2023-05-12T05:48:36.703Z,45.18
2023-05-12T05:51:45.158Z,44.56
2023-05-12T05:54:51.807Z,44.51
2023-05-12T05:57:58.619Z,44.58
2023-05-12T06:01:06.168Z,44.87
2023-05-12T06:04:13.051Z,44.02
2023-05-12T06:07:22.894Z,44.32
2023-05-12T06:10:28.773Z,43.17
2023-05-12T06:13:35.305Z,43.55
2023-05-12T06:16:40.911Z,43.02
2023-05-12T06:19:49.964Z,43.24
2023-05-12T06:22:58.223Z,43.01
2023-05-12T06:26:04.698Z,42.97
2023-05-12T06:29:10.844Z,43.43
2023-05-12T06:32:17.525Z,42.38
2023-05-12T06:35:23.217Z,42.61
2023-05-12T06:38:33.001Z,42.63
2023-05-12T06:41:38.819Z,42.58
2023-05-12T06:44:46.131Z,42.20
2023-05-12T06:47:51.775Z,42.12
2023-05-12T06:50:58.458Z,42.00
2023-05-12T06:54:10.601Z,41.60
2023-05-12T06:57:17.183Z,41.81
2023-05-12T07:00:23.480Z,41.90
2023-05-12T07:03:30.412Z,41.59
2023-05-12T07:06:36.374Z,41.21
2023-05-12T07:09:46.344Z,41.19
2023-05-12T07:12:53.553Z,40.99
2023-05-12T07:16:00.772Z,40.55
2023-05-12T07:19:06.574Z,40.30
2023-05-12T07:22:13.707Z,40.82
2023-05-12T07:25:22.587Z,40.00
2023-05-12T07:28:30.262Z,40.42
2023-05-12T07:31:36.395Z,40.21
2023-05-12T07:34:42.877Z,40.45
2023-05-12T07:37:48.810Z,39.88
2023-05-12T07:40:58.351Z,39.58
2023-05-12T07:44:05.398Z,39.38
2023-05-12T07:47:11.884Z,39.40
2023-05-12T07:50:17.616Z,39.14
2023-05-12T07:53:24.560Z,38.79
2023-05-12T07:56:32.866Z,38.70
2023-05-12T07:59:39.373Z,38.91
2023-05-12T08:02:47.642Z,38.74
2023-05-12T08:05:54.518Z,39.02
2023-05-12T08:09:00.269Z,39.29
2023-05-12T08:12:10.037Z,38.54
2023-05-12T08:15:16.345Z,38.83
2023-05-12T08:18:23.173Z,38.19
2023-05-12T08:21:29.026Z,37.85
2023-05-12T08:24:35.542Z,37.92
2023-05-12T08:27:44.006Z,38.26
2023-05-12T08:30:50.553Z,38.75
2023-05-12T08:34:08.949Z,38.52
2023-05-12T08:37:17.380Z,37.71
2023-05-12T08:40:26.851Z,37.69
2023-05-12T08:43:45.370Z,37.49
2023-05-12T08:46:52.139Z,38.07
2023-05-12T08:50:08.502Z,36.88
2023-05-12T08:53:15.458Z,37.32
2023-05-12T08:59:41.117Z,37.62
2023-05-12T09:02:54.398Z,36.51
2023-05-12T09:06:03.783Z,36.65
2023-05-12T09:09:10.245Z,37.02
2023-05-12T09:12:19.575Z,36.92
2023-05-12T09:15:39.970Z,36.75
2023-05-12T09:18:53.841Z,36.63
2023-05-12T09:22:01.724Z,36.19
2023-05-12T09:25:20.044Z,36.75
2023-05-12T09:28:27.017Z,36.20
2023-05-12T09:31:35.460Z,36.61
2023-05-12T09:34:41.910Z,37.05
2023-05-12T09:37:49.821Z,36.79
2023-05-12T09:40:56.208Z,36.33
2023-05-12T09:44:06.650Z,36.02
2023-05-12T09:47:16.473Z,35.50
2023-05-12T09:50:23.100Z,34.80
2023-05-12T09:53:29.562Z,34.44
2023-05-12T09:56:35.535Z,33.78
2023-05-12T09:59:44.185Z,33.53
2023-05-12T10:02:53.952Z,33.92
2023-05-12T10:06:07.903Z,33.56
2023-05-12T10:09:23.073Z,32.46
2023-05-12T10:12:29.623Z,33.46
2023-05-12T10:15:38.053Z,32.76
2023-05-12T10:18:56.297Z,32.27
2023-05-12T10:22:03.666Z,32.41
2023-05-12T10:25:12.045Z,31.65
2023-05-12T10:28:17.718Z,30.91
2023-05-12T10:31:26.217Z,31.21
2023-05-12T10:34:39.061Z,30.58
2023-05-12T10:37:46.819Z,30.03
2023-05-12T10:40:58.422Z,30.16
2023-05-12T10:44:06.378Z,30.68
2023-05-12T10:47:17.729Z,30.63
2023-05-12T10:50:33.033Z,30.65
2023-05-12T10:53:50.118Z,30.31
2023-05-12T10:57:03.622Z,30.80
2023-05-12T11:00:17.469Z,30.68
2023-05-12T11:03:28.906Z,30.79
2023-05-12T11:06:39.349Z,30.99
2023-05-12T11:09:58.675Z,31.36
2023-05-12T11:13:07.415Z,31.54
2023-05-12T11:16:15.931Z,31.70
2023-05-12T11:19:22.331Z,31.32
2023-05-12T11:22:32.236Z,30.66
2023-05-12T11:25:39.219Z,30.68
2023-05-12T11:28:46.158Z,31.14
2023-05-12T11:31:52.907Z,30.83
2023-05-12T11:34:59.963Z,31.40
2023-05-12T11:38:19.399Z,31.15
2023-05-12T11:41:27.363Z,31.66
2023-05-12T11:44:33.531Z,30.83
2023-05-12T11:47:40.091Z,30.32
2023-05-12T11:50:49.815Z,30.21
2023-05-12T11:53:59.345Z,30.45
2023-05-12T11:57:05.423Z,30.28
2023-05-12T12:00:13.269Z,30.67
2023-05-12T12:03:20.195Z,30.35
2023-05-12T12:06:26.839Z,30.35
2023-05-12T12:09:43.329Z,30.79
2023-05-12T12:12:52.195Z,30.90
2023-05-12T12:15:57.784Z,30.08
2023-05-12T12:19:04.335Z,29.94
2023-05-12T12:22:09.910Z,29.31
2023-05-12T12:25:19.951Z,29.87
2023-05-12T12:28:25.652Z,30.05
2023-05-12T12:31:32.019Z,29.17
2023-05-12T12:34:37.633Z,29.32
2023-05-12T12:37:44.951Z,28.87
2023-05-12T12:40:53.766Z,29.24
2023-05-12T12:44:00.293Z,28.51
2023-05-12T12:47:05.849Z,28.42
2023-05-12T12:50:13.996Z,28.85
2023-05-12T12:53:19.934Z,28.57
2023-05-12T12:56:29.125Z,29.26
2023-05-12T12:59:34.554Z,28.85
2023-05-12T13:02:41.473Z,29.11
2023-05-12T13:05:47.742Z,29.54
2023-05-12T13:08:54.113Z,28.37
2023-05-12T13:12:02.833Z,28.31
2023-05-12T13:15:11.074Z,28.29
2023-05-12T13:18:16.605Z,28.68
2023-05-12T13:21:23.338Z,28.16
2023-05-12T13:24:29.690Z,28.78
2023-05-12T13:27:39.144Z,28.62
2023-05-12T13:30:44.717Z,29.28
2023-05-12T13:33:51.220Z,28.65
2023-05-12T13:36:56.748Z,28.40
2023-05-12T13:40:03.269Z,29.06
2023-05-12T13:43:12.625Z,28.60
2023-05-12T13:46:19.031Z,28.54
2023-05-12T13:49:24.609Z,28.96
2023-05-12T13:52:31.097Z,28.96
2023-05-12T13:55:40.724Z,28.60
2023-05-12T13:58:50.339Z,28.47
2023-05-12T14:01:55.932Z,29.17
2023-05-12T14:05:02.559Z,28.90
2023-05-12T14:08:08.576Z,29.94
2023-05-12T14:11:15.031Z,30.50
2023-05-12T14:14:23.673Z,30.16
2023-05-12T14:17:30.169Z,30.21
2023-05-12T14:20:35.884Z,29.83
2023-05-12T14:23:42.886Z,30.10
2023-05-12T14:26:48.459Z,30.26
2023-05-12T14:29:57.634Z,29.59
2023-05-12T14:33:03.581Z,30.01
2023-05-12T14:36:11.449Z,28.82
2023-05-12T14:39:16.972Z,29.40
2023-05-12T14:42:24.033Z,29.16
2023-05-12T14:45:32.357Z,29.26
2023-05-12T14:48:38.775Z,29.24
2023-05-12T14:51:44.716Z,29.60
2023-05-12T14:54:51.387Z,29.13
2023-05-12T14:57:56.865Z,28.97
2023-05-12T15:01:08.711Z,28.75
2023-05-12T15:04:14.815Z,28.65
2023-05-12T15:07:22.752Z,28.95
2023-05-12T15:10:28.281Z,28.87
2023-05-12T15:13:34.815Z,28.88
2023-05-12T15:16:43.455Z,28.71
2023-05-12T15:19:49.844Z,28.61
2023-05-12T15:22:55.574Z,28.38
2023-05-12T15:26:10.537Z,27.78
2023-05-12T15:29:21.824Z,27.82
2023-05-12T15:32:31.103Z,27.08
2023-05-12T15:35:36.974Z,27.00
2023-05-12T15:38:43.385Z,27.20
2023-05-12T15:41:50.685Z,26.17
2023-05-12T15:44:57.735Z,26.81
2023-05-12T15:48:08.715Z,26.61
2023-05-12T15:51:15.878Z,27.19
2023-05-12T15:54:21.859Z,26.86
2023-05-12T15:57:28.149Z,26.70
2023-05-12T16:00:36.674Z,26.90
2023-05-12T16:03:46.132Z,27.31
2023-05-12T16:06:51.681Z,26.55
2023-05-12T16:09:58.416Z,27.33
2023-05-12T16:13:03.865Z,27.46
2023-05-12T16:16:11.359Z,27.46
2023-05-12T16:19:20.481Z,27.23
2023-05-12T16:22:26.815Z,26.86
2023-05-12T16:25:32.351Z,27.36
2023-05-12T16:28:38.756Z,27.22
2023-05-12T16:31:44.648Z,26.90
2023-05-12T16:34:53.780Z,27.02
2023-05-12T16:37:59.333Z,26.73
2023-05-12T16:41:05.915Z,26.20
2023-05-12T16:44:11.427Z,26.54
2023-05-12T16:47:18.318Z,26.59
2023-05-12T16:50:26.637Z,26.43
2023-05-12T16:53:33.201Z,26.58
2023-05-12T16:56:38.847Z,26.48
2023-05-12T16:59:45.475Z,26.75
2023-05-12T17:02:51.088Z,27.62
2023-05-12T17:06:00.580Z,27.66
2023-05-12T17:09:06.246Z,27.48
2023-05-12T17:12:14.493Z,28.07
2023-05-12T17:15:20.279Z,28.00
2023-05-12T17:18:27.333Z,28.68
2023-05-12T17:21:35.687Z,28.52
2023-05-12T17:24:42.073Z,29.03
2023-05-12T17:27:48.377Z,29.32
2023-05-12T17:30:56.973Z,29.28
2023-05-12T17:34:02.601Z,29.71
2023-05-12T17:37:12.149Z,30.35
2023-05-12T17:40:20.213Z,30.45
2023-05-12T17:43:26.781Z,30.45
2023-05-12T17:46:33.028Z,30.52
2023-05-12T17:49:39.549Z,30.84
2023-05-12T17:52:47.860Z,31.23
2023-05-12T17:55:54.652Z,31.51
2023-05-12T17:59:00.223Z,31.31
2023-05-12T18:02:06.905Z,32.20
2023-05-12T18:05:13.372Z,32.24
2023-05-12T18:08:23.133Z,32.06
2023-05-12T18:11:29.489Z,32.62
2023-05-12T18:14:36.502Z,32.36
2023-05-12T18:17:42.364Z,32.98
2023-05-12T18:20:49.679Z,32.78
2023-05-12T18:23:58.521Z,33.56
2023-05-12T18:27:06.488Z,33.65
2023-05-12T18:30:13.954Z,33.36
2023-05-12T18:33:20.721Z,33.25
2023-05-12T18:36:26.387Z,33.95
2023-05-12T18:39:35.809Z,33.86
2023-05-12T18:42:41.985Z,33.76
2023-05-12T18:45:49.249Z,34.51
2023-05-12T18:48:55.078Z,33.88
2023-05-12T18:52:02.160Z,34.29
2023-05-12T18:55:12.209Z,34.03
2023-05-12T18:58:18.892Z,34.24
2023-05-12T19:01:24.984Z,34.93
2023-05-12T19:04:31.728Z,35.08
2023-05-12T19:07:37.740Z,34.70
2023-05-12T19:10:47.890Z,35.00
2023-05-12T19:13:53.976Z,35.22
2023-05-12T19:17:00.734Z,35.34
2023-05-12T19:20:07.749Z,34.92
2023-05-12T19:23:16.294Z,34.95
2023-05-12T19:26:25.021Z,34.98
2023-05-12T19:29:31.793Z,35.84
2023-05-12T19:32:38.191Z,35.20
2023-05-12T19:35:46.898Z,35.66
2023-05-12T19:38:54.559Z,35.95
2023-05-12T19:42:08.388Z,35.44
2023-05-12T19:45:15.890Z,35.98
2023-05-12T19:48:24.006Z,36.46
2023-05-12T19:51:30.101Z,36.13
2023-05-12T19:54:38.480Z,36.10
2023-05-12T19:57:47.177Z,36.37
2023-05-12T20:00:55.803Z,36.28
2023-05-12T20:04:02.978Z,36.57
2023-05-12T20:07:10.856Z,36.49
2023-05-12T20:10:18.002Z,36.48
2023-05-12T20:13:27.580Z,36.86
2023-05-12T20:16:34.185Z,37.25
2023-05-12T20:19:41.489Z,36.95
2023-05-12T20:22:47.617Z,37.04
2023-05-12T20:25:55.835Z,37.38
2023-05-12T20:29:04.616Z,37.41
2023-05-12T20:32:14.344Z,37.15
2023-05-12T20:35:20.962Z,37.31
2023-05-12T20:38:28.414Z,37.58
2023-05-12T20:41:34.776Z,37.82
2023-05-12T20:44:44.433Z,37.51
2023-05-12T20:47:50.334Z,37.69
2023-05-12T20:50:57.951Z,37.83
2023-05-12T20:54:03.860Z,37.83
2023-05-12T20:57:12.710Z,37.73
2023-05-12T21:00:22.854Z,37.95
2023-05-12T21:03:29.870Z,37.88
2023-05-12T21:06:38.695Z,37.76
2023-05-12T21:09:46.542Z,38.27
2023-05-12T21:12:52.423Z,38.25
2023-05-12T21:16:01.877Z,38.42
2023-05-12T21:19:07.855Z,37.91
2023-05-12T21:22:15.451Z,38.38
2023-05-12T21:25:21.980Z,38.50
2023-05-12T21:28:28.695Z,38.39
2023-05-12T21:31:37.346Z,38.51
2023-05-12T21:34:45.723Z,38.46
2023-05-12T21:37:52.124Z,38.88
2023-05-12T21:40:58.582Z,39.00
2023-05-12T21:44:04.322Z,38.69
2023-05-12T21:47:13.688Z,38.81
2023-05-12T21:50:21.976Z,38.81
2023-05-12T21:53:28.671Z,38.87
2023-05-12T21:56:34.688Z,38.88
2023-05-12T21:59:41.206Z,38.83
2023-05-12T22:02:50.826Z,38.96
2023-05-12T22:05:57.826Z,38.99
2023-05-12T22:09:03.480Z,38.72
2023-05-12T22:12:13.852Z,39.07
2023-05-12T22:15:19.385Z,38.71
2023-05-12T22:18:29.215Z,39.00
2023-05-12T22:21:34.791Z,38.51
2023-05-12T22:24:41.193Z,38.95
2023-05-12T22:27:46.984Z,38.83
2023-05-12T22:30:53.711Z,38.98
2023-05-12T22:34:02.031Z,38.58
2023-05-12T22:37:08.972Z,38.77
2023-05-12T22:40:15.129Z,38.83
2023-05-12T22:43:21.527Z,38.79
2023-05-12T22:46:27.105Z,38.88
2023-05-12T22:49:36.351Z,38.63
2023-05-12T22:52:42.203Z,38.89
2023-05-12T22:55:49.238Z,38.91
2023-05-12T22:58:54.700Z,39.01
2023-05-12T23:02:01.414Z,39.09
2023-05-12T23:05:11.098Z,38.92
2023-05-12T23:08:17.599Z,38.94
2023-05-12T23:11:23.348Z,38.64
2023-05-12T23:14:29.779Z,39.03
2023-05-12T23:17:35.502Z,38.81
2023-05-12T23:20:44.745Z,39.27
2023-05-12T23:23:50.174Z,38.77
2023-05-12T23:26:56.562Z,39.29
2023-05-12T23:30:03.642Z,39.35
2023-05-12T23:33:10.206Z,39.49
2023-05-12T23:36:18.588Z,39.34
2023-05-12T23:39:25.496Z,39.75
2023-05-12T23:42:31.349Z,39.72
2023-05-12T23:45:38.221Z,39.89
2023-05-12T23:48:43.710Z,40.52
2023-05-12T23:51:52.900Z,40.52
2023-05-12T23:54:58.374Z,40.41
2023-05-12T23:58:04.729Z,40.85
